Time;durP1;ratioP1;P1;durP2;ratioP2;P2;SDS_P1;SDS_P2;PMS_P1;PMS_P2;Temp;Humidity;BMP_temperature;BMP_pressure;BME280_temperature;BME280_humidity;BME280_pressure;Samples;Min_cycle;Max_cycle;Signal;HPM_P1;HPM_P2
2024/02/02 00:01:22;;;;;;;24.75;7.07;;;6.10;99.90;;;6.28;74.46;102085.66;5011251;28;20096;-83
2024/02/02 00:03:50;;;;;;;24.70;7.05;;;6.20;99.90;;;6.28;74.21;102083.00;5012210;28;20508;-83
2024/02/02 00:06:18;;;;;;;33.92;7.53;;;6.20;99.90;;;6.30;74.26;102088.19;5029575;28;20045;-83
2024/02/02 00:08:47;;;;;;;27.52;7.45;;;6.20;99.90;;;6.23;74.21;102082.63;5011723;28;20068;-83
2024/02/02 00:11:16;;;;;;;26.67;7.43;;;6.10;99.90;;;6.26;74.41;102084.16;5028798;28;20568;-83
2024/02/02 00:13:47;;;;;;;32.85;8.13;;;6.10;99.90;;;6.28;74.29;102066.28;4979466;28;20521;-83
2024/02/02 00:16:14;;;;;;;23.38;7.07;;;6.10;99.90;;;6.27;74.24;102069.91;5030063;28;20042;-83
2024/02/02 00:18:42;;;;;;;31.33;7.75;;;6.10;99.90;;;6.30;74.05;102059.06;4978906;28;20085;-86
2024/02/02 00:21:09;;;;;;;27.08;7.32;;;6.10;99.90;;;6.30;74.21;102053.75;5029646;28;20129;-82
2024/02/02 00:23:37;;;;;;;31.52;7.90;;;6.10;99.90;;;6.31;74.27;102055.41;5029132;28;20513;-83
2024/02/02 00:26:07;;;;;;;29.13;7.38;;;6.20;99.90;;;6.32;74.19;102041.19;4995029;28;20136;-82
2024/02/02 00:28:34;;;;;;;32.92;7.53;;;6.20;99.90;;;6.33;74.47;102046.31;5011462;28;20045;-83
2024/02/02 00:31:02;;;;;;;30.42;7.80;;;6.20;99.90;;;6.32;74.10;102049.13;4995380;28;20053;-83
2024/02/02 00:33:31;;;;;;;27.70;7.65;;;6.20;99.90;;;6.30;74.38;102045.81;5029844;28;20420;-83
2024/02/02 00:35:59;;;;;;;31.20;8.50;;;6.10;99.90;;;6.32;74.52;102033.22;5011410;28;20069;-83
2024/02/02 00:38:26;;;;;;;35.33;8.85;;;6.20;99.90;;;6.27;74.43;102027.53;5012066;28;20057;-82
2024/02/02 00:40:54;;;;;;;30.67;10.13;;;6.10;99.90;;;6.27;74.28;102022.25;5028837;28;20115;-83
2024/02/02 00:43:23;;;;;;;36.58;9.45;;;6.10;99.90;;;6.25;74.34;102011.78;5029939;28;20129;-82
2024/02/02 00:45:50;;;;;;;36.70;10.60;;;6.10;99.90;;;6.26;74.20;102000.22;5010469;28;20164;-83
2024/02/02 00:48:18;;;;;;;33.03;10.95;;;6.10;99.90;;;6.18;74.70;101990.31;5030217;28;20045;-83
2024/02/02 00:50:45;;;;;;;42.08;11.43;;;6.10;99.90;;;6.17;74.91;101998.44;5029296;28;20104;-84
2024/02/02 00:53:13;;;;;;;30.27;11.02;;;6.10;99.90;;;6.19;74.55;101999.94;4994777;28;20041;-83
2024/02/02 00:55:41;;;;;;;32.92;9.80;;;6.10;99.90;;;6.23;74.68;101992.53;5028977;28;20128;-83
2024/02/02 00:58:08;;;;;;;30.77;10.23;;;6.10;99.90;;;6.27;74.59;101995.75;5010399;28;20517;-83
2024/02/02 01:00:37;;;;;;;32.83;10.75;;;6.10;99.90;;;6.25;74.84;101997.72;5010366;28;20536;-83
2024/02/02 01:03:06;;;;;;;36.10;10.30;;;6.10;99.90;;;6.27;74.86;101990.44;5029000;28;20060;-84
2024/02/02 01:05:33;;;;;;;33.00;10.25;;;6.10;99.90;;;6.15;75.02;101993.28;5011378;28;20064;-83
2024/02/02 01:08:01;;;;;;;34.83;10.25;;;6.10;99.90;;;6.18;74.85;101982.38;5010260;28;20052;-83
2024/02/02 01:10:29;;;;;;;37.40;10.77;;;6.10;99.90;;;6.09;74.96;101988.53;5011098;28;20042;-83
2024/02/02 01:12:57;;;;;;;31.38;10.68;;;6.00;99.90;;;6.11;74.92;101983.94;4977144;28;20053;-84
2024/02/02 01:15:25;;;;;;;29.88;10.18;;;6.00;99.90;;;6.17;75.02;101986.00;5010649;28;20049;-83
2024/02/02 01:17:54;;;;;;;26.33;9.75;;;6.10;99.90;;;6.19;74.67;101977.91;5028978;28;20045;-82
2024/02/02 01:20:22;;;;;;;34.50;10.13;;;6.10;99.90;;;6.21;74.26;101980.44;5028743;28;20099;-82
2024/02/02 01:22:50;;;;;;;40.42;11.70;;;6.10;99.90;;;6.14;74.30;101981.00;5029423;28;20531;-83
2024/02/02 01:25:18;;;;;;;35.75;10.10;;;6.10;99.90;;;6.13;74.08;101968.75;5028599;28;20049;-83
2024/02/02 01:27:45;;;;;;;37.88;10.05;;;6.10;99.90;;;6.13;74.06;101989.09;5028737;28;20121;-84
2024/02/02 01:30:13;;;;;;;32.97;9.68;;;6.00;99.90;;;6.12;74.64;101988.25;4977635;28;20504;-82
2024/02/02 01:32:41;;;;;;;33.92;10.95;;;6.00;99.90;;;6.14;74.37;101980.16;5029008;28;20045;-83
2024/02/02 01:35:10;;;;;;;42.85;11.15;;;6.00;99.90;;;6.09;74.60;101979.75;5029032;28;20257;-84
2024/02/02 01:37:38;;;;;;;41.22;11.35;;;6.00;99.90;;;6.01;74.41;101975.19;5043001;28;20103;-83
2024/02/02 01:40:08;;;;;;;38.33;10.90;;;6.00;99.90;;;6.03;74.65;101973.22;5010549;28;20046;-83
2024/02/02 01:42:35;;;;;;;37.30;10.45;;;6.00;99.90;;;6.00;74.91;101964.72;5029044;28;20046;-83
2024/02/02 01:45:03;;;;;;;31.98;10.27;;;6.00;99.90;;;6.04;75.18;101961.66;5028526;28;20049;-83
2024/02/02 01:47:31;;;;;;;30.23;10.23;;;6.00;99.90;;;6.01;75.27;101969.06;5010372;28;20100;-82
2024/02/02 01:49:59;;;;;;;34.30;10.60;;;6.00;99.90;;;6.03;74.99;101965.28;4993944;28;20049;-83
2024/02/02 01:52:29;;;;;;;35.67;10.20;;;6.00;99.90;;;6.03;74.99;101967.09;5010344;28;20057;-83
2024/02/02 01:54:56;;;;;;;37.72;12.88;;;6.00;99.90;;;6.04;75.09;101968.78;5010583;28;20412;-82
2024/02/02 01:57:24;;;;;;;40.35;10.63;;;6.00;99.90;;;5.98;75.10;101972.00;5011135;28;20076;-83
2024/02/02 01:59:52;;;;;;;32.10;9.57;;;6.00;99.90;;;6.05;75.23;101960.69;5033403;28;20217;-83
2024/02/02 02:02:19;;;;;;;32.42;9.65;;;6.00;99.90;;;5.98;74.94;101959.59;5013796;28;20493;-83
2024/02/02 02:04:47;;;;;;;28.10;9.68;;;6.00;99.90;;;5.93;75.11;101951.25;4980471;28;20056;-83
2024/02/02 02:07:15;;;;;;;29.23;9.85;;;6.00;99.90;;;5.97;75.32;101954.44;5013659;28;20060;-83
2024/02/02 02:09:45;;;;;;;33.30;9.95;;;6.00;99.90;;;5.99;75.17;101945.38;4996142;28;20053;-82
2024/02/02 02:12:13;;;;;;;40.17;10.30;;;6.00;99.90;;;6.00;75.09;101946.19;5013845;28;20049;-83
2024/02/02 02:14:41;;;;;;;39.95;10.57;;;6.00;99.90;;;6.03;75.13;101954.69;5013674;28;20337;-83
2024/02/02 02:17:09;;;;;;;29.13;9.32;;;6.00;99.90;;;6.03;74.83;101948.56;4997250;28;20084;-83
2024/02/02 02:19:41;;;;;;;30.73;9.55;;;6.00;99.90;;;6.02;74.54;101939.78;5013254;28;20499;-83
2024/02/02 02:22:10;;;;;;;32.72;8.93;;;6.10;99.90;;;6.03;74.67;101938.81;5032913;28;20041;-83
2024/02/02 02:24:40;;;;;;;33.35;9.05;;;6.10;99.90;;;6.06;74.75;101924.44;5031754;28;20056;-83
2024/02/02 02:27:07;;;;;;;31.10;9.43;;;6.10;99.90;;;6.07;74.27;101934.06;5013466;28;20050;-83
2024/02/02 02:29:35;;;;;;;34.17;8.35;;;6.10;99.90;;;6.08;74.30;101938.38;5013360;28;20119;-83
2024/02/02 02:32:02;;;;;;;28.67;8.40;;;6.10;99.90;;;6.02;74.22;101945.09;5012607;28;20375;-82
2024/02/02 02:34:31;;;;;;;32.03;9.45;;;6.10;99.90;;;6.04;74.29;101939.63;5012565;28;20049;-83
2024/02/02 02:36:58;;;;;;;26.58;8.77;;;6.10;99.90;;;6.09;74.58;101938.22;5031675;28;20045;-82
2024/02/02 02:39:27;;;;;;;30.48;9.45;;;6.10;99.90;;;6.08;73.87;101939.19;5012857;28;20057;-83
2024/02/02 02:41:55;;;;;;;34.78;8.60;;;6.10;99.90;;;6.06;74.39;101949.13;5013057;28;20394;-83
2024/02/02 02:44:22;;;;;;;33.63;9.10;;;6.10;99.90;;;6.08;74.00;101939.19;5031523;28;20111;-83
2024/02/02 02:46:51;;;;;;;34.13;8.20;;;6.10;99.90;;;6.11;73.76;101941.56;5032028;28;20500;-83
2024/02/02 02:49:19;;;;;;;25.92;8.70;;;6.10;99.90;;;6.13;74.07;101946.72;5031412;28;20041;-83
2024/02/02 02:51:47;;;;;;;27.27;8.77;;;6.10;99.90;;;6.17;74.12;101951.56;4996187;28;20050;-83
2024/02/02 02:54:15;;;;;;;28.35;8.68;;;6.20;99.90;;;6.17;74.12;101943.63;5012792;28;20052;-83
2024/02/02 02:56:45;;;;;;;25.95;8.60;;;6.10;99.90;;;6.12;74.15;101937.94;5031297;28;20361;-82
2024/02/02 02:59:16;;;;;;;30.55;8.05;;;6.10;99.90;;;6.14;73.88;101937.78;5012913;28;21230;-83
2024/02/02 03:01:44;;;;;;;34.80;8.73;;;6.10;99.90;;;6.21;73.71;101933.59;4964786;28;20432;-83
2024/02/02 03:04:12;;;;;;;36.03;7.97;;;6.20;99.90;;;6.23;73.81;101939.56;4996121;28;20045;-83
2024/02/02 03:06:40;;;;;;;25.33;7.85;;;6.20;99.90;;;6.20;73.66;101939.88;5012764;28;20060;-83
2024/02/02 03:09:11;;;;;;;27.73;7.88;;;6.20;99.90;;;6.21;73.63;101943.34;5028420;28;20137;-83
2024/02/02 03:11:39;;;;;;;26.13;7.45;;;6.20;99.90;;;6.17;73.14;101956.88;5012785;28;20144;-83
2024/02/02 03:14:08;;;;;;;32.25;8.55;;;6.20;99.90;;;6.23;73.13;101962.56;5028672;28;20468;-83
2024/02/02 03:16:35;;;;;;;23.17;7.80;;;6.20;99.90;;;6.26;73.33;101957.81;5012608;28;20069;-83
2024/02/02 03:19:04;;;;;;;37.70;8.68;;;6.20;99.90;;;6.24;73.38;101951.81;5030363;28;20432;-84
2024/02/02 03:21:32;;;;;;;24.60;7.97;;;6.20;99.90;;;6.10;72.98;101939.03;5030422;28;20077;-82
2024/02/02 03:23:59;;;;;;;35.85;8.75;;;6.10;99.90;;;5.99;73.49;101916.25;5012144;28;20080;-83
2024/02/02 03:26:27;;;;;;;31.40;8.02;;;6.10;99.90;;;6.06;73.65;101920.00;5011368;28;20501;-83
2024/02/02 03:28:54;;;;;;;31.75;8.30;;;6.10;99.90;;;6.07;73.58;101916.34;5030357;28;20041;-83
2024/02/02 03:31:24;;;;;;;30.50;8.23;;;6.10;99.90;;;6.15;73.74;101920.94;5030357;28;20041;-82
2024/02/02 03:33:51;;;;;;;29.52;7.75;;;6.20;99.90;;;6.11;73.52;101907.16;5031166;28;20045;-83
2024/02/02 03:36:19;;;;;;;30.92;8.45;;;6.10;99.90;;;6.14;73.45;101906.00;5011973;28;20049;-83
2024/02/02 03:38:46;;;;;;;31.42;9.02;;;6.10;99.90;;;6.11;73.16;101906.31;5012162;28;20130;-83
2024/02/02 03:41:17;;;;;;;27.25;8.70;;;6.10;99.90;;;6.07;73.37;101905.75;5030071;28;20057;-84
2024/02/02 03:43:46;;;;;;;25.35;8.63;;;6.10;99.90;;;6.05;73.87;101901.56;5012540;28;20064;-83
2024/02/02 03:46:13;;;;;;;24.73;7.90;;;6.10;99.90;;;6.03;74.06;101893.78;5011842;28;20111;-83
2024/02/02 03:48:43;;;;;;;29.63;8.52;;;6.10;99.90;;;6.01;74.10;101911.66;5028451;28;20076;-83
2024/02/02 03:51:10;;;;;;;27.73;8.90;;;6.10;99.90;;;6.08;74.37;101898.66;5029804;28;20123;-83
2024/02/02 03:53:38;;;;;;;36.88;8.55;;;6.10;99.90;;;6.05;74.22;101902.44;5011535;28;20111;-83
2024/02/02 03:56:06;;;;;;;29.15;9.35;;;6.10;99.90;;;6.04;74.20;101895.44;5030210;28;20501;-84
2024/02/02 03:58:33;;;;;;;30.40;9.13;;;6.10;99.90;;;5.91;74.96;101906.38;5011328;28;20041;-82
2024/02/02 04:01:01;;;;;;;26.08;7.85;;;6.10;99.90;;;6.03;75.05;101907.03;5029704;28;20084;-82
2024/02/02 04:03:29;;;;;;;31.45;9.43;;;6.10;99.90;;;6.10;75.03;101900.19;5011459;28;20041;-83
2024/02/02 04:05:59;;;;;;;31.33;8.82;;;6.10;99.90;;;6.11;74.95;101920.38;5029810;28;20099;-84
2024/02/02 04:08:27;;;;;;;28.25;9.35;;;6.10;99.90;;;6.15;75.51;101905.88;5012065;28;20125;-83
2024/02/02 04:10:55;;;;;;;31.27;9.07;;;6.20;99.90;;;6.14;75.21;101906.81;5011592;28;20057;-83
2024/02/02 04:13:22;;;;;;;31.52;10.10;;;6.10;99.90;;;6.07;75.10;101912.88;5011451;28;20148;-83
2024/02/02 04:15:51;;;;;;;32.70;9.02;;;6.00;99.90;;;6.01;75.33;101910.81;5029489;28;20049;-83
2024/02/02 04:18:18;;;;;;;27.33;8.57;;;6.10;99.90;;;6.07;75.81;101913.72;5010983;28;20099;-83
2024/02/02 04:20:46;;;;;;;31.95;9.07;;;6.10;99.90;;;6.13;75.44;101894.56;5029213;28;20057;-83
2024/02/02 04:23:16;;;;;;;30.35;8.32;;;6.10;99.90;;;6.16;75.43;101904.06;5011075;28;20428;-82
2024/02/02 04:25:43;;;;;;;29.88;9.18;;;6.20;99.90;;;6.17;75.91;101903.91;5029337;28;20041;-82
2024/02/02 04:28:10;;;;;;;34.67;8.57;;;6.20;99.90;;;6.15;75.58;101905.88;5011008;28;20033;-82
2024/02/02 04:30:38;;;;;;;22.65;8.20;;;6.20;99.90;;;6.06;75.71;101924.44;5029480;28;20063;-83
2024/02/02 04:33:06;;;;;;;28.55;8.40;;;6.10;99.90;;;6.13;76.09;101921.06;5011241;28;20068;-83
2024/02/02 04:35:34;;;;;;;33.55;8.60;;;6.20;99.90;;;6.16;75.80;101920.78;5028945;28;20099;-82
2024/02/02 04:38:02;;;;;;;32.80;9.52;;;6.20;99.90;;;6.19;75.65;101909.88;5010490;28;20041;-82
2024/02/02 04:40:31;;;;;;;22.35;7.90;;;6.20;99.90;;;6.23;75.77;101909.59;4985926;28;20088;-83
2024/02/02 04:43:00;;;;;;;29.17;7.35;;;6.20;99.90;;;6.16;75.35;101904.88;5030062;28;20068;-83
2024/02/02 04:45:28;;;;;;;33.00;8.13;;;6.20;99.90;;;6.19;75.41;101906.38;5029386;28;20352;-83
2024/02/02 04:47:55;;;;;;;36.65;9.15;;;6.20;99.90;;;6.21;75.73;101900.97;5029058;28;20041;-82
2024/02/02 04:50:25;;;;;;;33.28;8.43;;;6.20;99.90;;;6.08;75.89;101909.25;5010962;28;20493;-82
2024/02/02 04:52:53;;;;;;;26.90;7.78;;;6.10;99.90;;;6.09;75.98;101911.72;5026781;28;20057;-83
2024/02/02 04:55:20;;;;;;;31.70;8.73;;;6.10;99.90;;;6.05;76.13;101907.72;5010521;28;20579;-84
2024/02/02 04:57:49;;;;;;;39.15;9.27;;;6.10;99.90;;;6.05;76.18;101891.84;5029152;28;20045;-82
2024/02/02 05:00:18;;;;;;;31.85;7.40;;;6.10;99.90;;;6.05;76.30;101890.97;5010752;28;20046;-83
2024/02/02 05:02:45;;;;;;;22.65;7.30;;;6.10;99.90;;;6.09;76.11;101890.53;5010622;28;20137;-83
2024/02/02 05:05:14;;;;;;;25.10;7.22;;;6.10;99.90;;;6.11;76.32;101885.13;5010629;28;20045;-83
2024/02/02 05:07:42;;;;;;;29.55;8.60;;;6.30;99.90;;;6.13;75.77;101878.69;5011257;28;20585;-84
2024/02/02 05:10:10;;;;;;;25.25;7.43;;;6.20;99.90;;;6.06;76.01;101871.50;5013788;28;20048;-84
2024/02/02 05:12:38;;;;;;;31.85;7.60;;;6.10;99.90;;;6.03;75.75;101861.19;4994222;28;20046;-83
2024/02/02 05:15:08;;;;;;;33.33;7.95;;;6.10;99.90;;;5.98;75.96;101851.03;5010624;28;20099;-83
2024/02/02 05:17:35;;;;;;;30.70;7.40;;;6.10;99.90;;;6.02;75.81;101856.88;5028969;28;20393;-85
2024/02/02 05:20:04;;;;;;;33.28;7.13;;;6.10;99.90;;;6.05;75.95;101852.13;4993061;28;20049;-87
2024/02/02 05:22:32;;;;;;;24.90;7.50;;;6.10;99.90;;;6.00;75.47;101854.34;4998098;28;20081;-87
2024/02/02 05:25:01;;;;;;;31.92;7.43;;;6.10;99.90;;;6.08;75.50;101845.69;5033517;28;20527;-87
2024/02/02 05:27:29;;;;;;;28.83;7.50;;;6.10;99.90;;;6.12;75.55;101839.94;5033661;28;20420;-87
2024/02/02 05:29:56;;;;;;;33.35;7.30;;;6.20;99.90;;;6.08;75.48;101830.63;5015991;28;20037;-87
2024/02/02 05:32:26;;;;;;;26.70;6.85;;;6.20;99.90;;;6.02;75.32;101831.22;4985134;28;20041;-87
2024/02/02 05:34:53;;;;;;;27.40;7.07;;;6.10;99.90;;;5.99;74.78;101828.84;5020283;28;20045;-87
2024/02/02 05:37:22;;;;;;;23.25;6.65;;;6.10;99.90;;;5.89;75.20;101831.50;5037845;28;20045;-87
2024/02/02 05:39:49;;;;;;;28.52;6.93;;;6.10;99.90;;;5.91;75.62;101826.09;5037663;28;20523;-87
2024/02/02 05:42:17;;;;;;;30.92;7.15;;;6.10;99.90;;;5.94;75.19;101825.81;5004210;28;20435;-84
2024/02/02 05:44:45;;;;;;;26.27;6.85;;;6.10;99.90;;;5.94;75.19;101821.34;5038626;28;20104;-85
2024/02/02 05:47:12;;;;;;;29.90;7.50;;;6.10;99.90;;;5.96;74.90;101807.97;5019826;28;20045;-86
2024/02/02 05:49:41;;;;;;;31.25;6.68;;;6.10;99.90;;;5.93;74.63;101803.81;5019453;28;20071;-87
2024/02/02 05:52:09;;;;;;;31.65;7.57;;;6.10;99.90;;;6.02;74.96;101794.16;5019154;28;20041;-82
2024/02/02 05:54:37;;;;;;;24.02;6.88;;;6.10;99.90;;;6.02;74.57;101782.72;5021364;28;20092;-81
2024/02/02 05:57:05;;;;;;;31.77;7.13;;;6.10;99.90;;;5.93;74.39;101787.91;5039591;28;20512;-83
2024/02/02 05:59:33;;;;;;;34.20;8.48;;;6.10;99.90;;;5.92;74.31;101782.78;5021209;28;20072;-83
2024/02/02 06:02:01;;;;;;;29.40;7.15;;;6.10;99.90;;;5.91;74.21;101778.44;5053906;28;20037;-85
2024/02/02 06:04:28;;;;;;;27.73;7.18;;;6.10;99.90;;;5.90;73.85;101787.34;5004271;28;20099;-83
2024/02/02 06:06:57;;;;;;;32.83;8.27;;;6.10;99.90;;;5.90;73.97;101795.28;5005869;28;20132;-81
2024/02/02 06:09:25;;;;;;;30.05;7.15;;;6.10;99.90;;;5.93;74.22;101787.09;5022170;28;20129;-80
2024/02/02 06:11:53;;;;;;;30.27;7.60;;;6.10;99.90;;;6.00;73.98;101774.91;5040331;28;20037;-80
2024/02/02 06:14:25;;;;;;;28.25;7.65;;;6.10;99.90;;;5.91;73.07;101760.78;5040541;28;20091;-80
2024/02/02 06:16:53;;;;;;;30.35;7.90;;;6.10;99.90;;;5.90;73.17;101756.44;5040018;28;20048;-80
2024/02/02 06:19:20;;;;;;;25.00;7.18;;;6.10;99.90;;;5.90;73.27;101750.28;5021582;28;20033;-80
2024/02/02 06:21:49;;;;;;;28.80;7.55;;;6.10;99.90;;;5.90;73.26;101750.28;5054514;28;20033;-80
2024/02/02 06:24:18;;;;;;;38.17;7.72;;;6.10;99.90;;;5.96;73.02;101728.56;5039965;28;20053;-80
2024/02/02 06:26:46;;;;;;;30.83;8.05;;;6.10;99.90;;;5.94;72.57;101738.44;5037347;28;20041;-80
2024/02/02 06:29:13;;;;;;;26.42;7.07;;;6.10;99.90;;;5.96;72.39;101739.16;5039788;28;20100;-80
2024/02/02 06:31:41;;;;;;;29.95;7.45;;;6.10;99.90;;;5.97;72.66;101740.81;5038858;28;20053;-80
2024/02/02 06:34:09;;;;;;;37.70;8.80;;;6.10;99.90;;;6.01;72.67;101750.13;5040111;28;20045;-80
2024/02/02 06:36:36;;;;;;;32.38;7.90;;;6.20;99.90;;;5.92;72.50;101737.78;5041812;28;20037;-80
2024/02/02 06:39:04;;;;;;;32.08;8.85;;;6.10;99.90;;;5.93;72.40;101750.84;5005305;28;20048;-80
2024/02/02 06:41:35;;;;;;;28.73;8.10;;;6.10;99.90;;;5.96;72.33;101754.19;5021908;28;20054;-80
2024/02/02 06:44:02;;;;;;;29.17;7.82;;;6.10;99.90;;;6.01;72.51;101752.75;5021253;28;20060;-80
2024/02/02 06:46:30;;;;;;;29.77;7.72;;;6.20;99.90;;;6.07;72.62;101748.69;5036098;28;20041;-80
2024/02/02 06:48:57;;;;;;;25.63;7.70;;;6.20;99.90;;;6.06;71.81;101745.19;5040493;28;20037;-80
2024/02/02 06:51:25;;;;;;;26.90;7.57;;;6.20;99.90;;;5.98;72.15;101755.69;5039674;28;20136;-80
2024/02/02 06:53:58;;;;;;;25.55;7.82;;;6.10;99.90;;;5.97;72.15;101739.97;5039703;28;20041;-85
2024/02/02 06:56:41;;;;;;;25.30;7.03;;;6.10;99.90;;;5.99;71.93;101751.22;5023358;28;20057;-85
2024/02/02 06:59:09;;;;;;;24.45;7.15;;;6.10;99.90;;;5.98;71.85;101746.94;5039105;28;20493;-90
2024/02/02 07:01:40;;;;;;;28.08;7.60;;;6.10;99.90;;;5.99;71.77;101752.06;5036485;28;20057;-90
2024/02/02 07:04:12;;;;;;;26.48;7.25;;;6.10;99.90;;;6.04;71.93;101751.63;5036491;28;20120;-91
2024/02/02 07:06:40;;;;;;;24.50;6.90;;;6.10;99.90;;;5.98;71.41;101737.16;5019129;28;20061;-88
2024/02/02 07:09:29;;;;;;;28.38;7.05;;;6.10;99.90;;;5.98;71.42;101729.22;4985194;28;20046;-87
2024/02/02 07:12:06;;;;;;;24.45;6.88;;;6.10;99.90;;;5.96;70.89;101743.59;5002778;28;20046;-91
2024/02/02 07:14:47;;;;;;;24.92;6.82;;;6.10;99.90;;;5.93;71.40;101757.97;5035813;28;20140;-91
2024/02/02 07:17:39;;;;;;;21.45;6.93;;;6.10;99.90;;;5.93;71.12;101747.38;5026506;28;20055;-87
2024/02/02 07:20:19;;;;;;;24.33;6.13;;;6.10;99.90;;;5.95;71.44;101753.34;4998374;28;20037;-88
2024/02/02 07:22:52;;;;;;;33.63;6.95;;;6.10;99.90;;;5.92;70.69;101759.78;5018152;28;20041;-88
2024/02/02 07:25:22;;;;;;;28.95;6.07;;;6.10;99.90;;;5.87;70.64;101762.00;5031078;28;20103;-85
2024/02/02 07:28:03;;;;;;;23.85;6.22;;;6.10;99.90;;;5.91;70.57;101751.97;5018853;28;20497;-82
2024/02/02 07:30:54;;;;;;;;;;;6.10;99.90;;;5.98;70.37;101768.94;5002962;28;20042;-82
2024/02/02 07:33:37;;;;;;;22.13;5.43;;;6.10;99.90;;;5.97;69.78;101761.16;5024108;28;20343;-82
2024/02/02 07:36:08;;;;;;;24.10;5.75;;;6.10;99.90;;;5.90;69.46;101753.78;5052063;28;20524;-82
2024/02/02 07:38:48;;;;;;;26.92;5.55;;;6.10;99.90;;;5.82;70.02;101766.91;5037457;28;20056;-82
2024/02/02 07:41:18;;;;;;;23.42;5.10;;;6.10;99.90;;;5.88;70.53;101778.72;4985565;28;20046;-82
2024/02/02 07:43:47;;;;;;;19.67;5.18;;;6.00;99.90;;;5.99;70.60;101772.41;5018749;28;20080;-83
2024/02/02 07:46:15;;;;;;;20.98;5.38;;;6.10;99.90;;;5.99;69.57;101769.75;5036765;28;20129;-82
2024/02/02 07:48:43;;;;;;;20.55;5.03;;;6.10;99.90;;;6.01;69.67;101768.66;5037626;28;20045;-82
2024/02/02 07:51:12;;;;;;;21.27;5.30;;;6.10;99.90;;;5.99;69.54;101778.53;5018522;28;20137;-82
2024/02/02 07:53:39;;;;;;;27.90;5.90;;;6.10;99.90;;;6.00;69.84;101776.72;5017854;28;20045;-82
2024/02/02 07:56:09;;;;;;;23.98;5.68;;;6.10;99.90;;;5.96;69.74;101765.63;5018201;28;20041;-82
2024/02/02 07:58:36;;;;;;;31.23;5.82;;;6.10;99.90;;;6.04;69.39;101778.94;5051843;28;20046;-82
2024/02/02 08:01:06;;;;;;;24.23;6.40;;;6.20;99.90;;;6.05;69.61;101775.31;5018781;28;20060;-82
2024/02/02 08:03:35;;;;;;;30.80;6.28;;;6.20;99.90;;;6.11;69.58;101776.53;5018763;28;20049;-82
2024/02/02 08:06:02;;;;;;;20.95;5.88;;;6.20;99.90;;;6.17;69.74;101778.56;5002578;28;20046;-82
2024/02/02 08:08:33;;;;;;;23.63;5.53;;;6.30;99.90;;;6.23;69.28;101774.50;5035051;28;20053;-82
2024/02/02 08:11:01;;;;;;;21.45;5.93;;;6.30;99.90;;;6.15;68.44;101762.84;5019229;28;20060;-82
2024/02/02 08:13:30;;;;;;;20.38;5.80;;;6.30;99.90;;;6.17;68.80;101758.22;5018595;28;20072;-82
2024/02/02 08:15:57;;;;;;;25.42;5.32;;;6.30;99.90;;;6.21;69.10;101768.53;5036178;28;20061;-82
2024/02/02 08:18:27;;;;;;;22.33;5.47;;;6.30;99.90;;;6.16;68.98;101767.16;5051524;28;20440;-82
2024/02/02 08:20:55;;;;;;;20.17;5.28;;;6.40;99.90;;;6.09;68.56;101762.59;5036548;28;20050;-82
2024/02/02 08:23:25;;;;;;;26.15;4.70;;;6.30;99.90;;;6.12;69.29;101765.78;5037472;28;20045;-82
2024/02/02 08:25:53;;;;;;;20.80;4.63;;;6.30;99.90;;;6.23;69.33;101761.25;5014168;28;20037;-82
2024/02/02 08:28:20;;;;;;;18.80;5.13;;;6.40;99.90;;;6.28;68.74;101765.09;5037814;28;20104;-82
2024/02/02 08:30:48;;;;;;;25.52;5.00;;;6.40;99.90;;;6.21;68.03;101763.22;5002318;28;20044;-82
2024/02/02 08:33:16;;;;;;;20.55;5.13;;;6.40;99.90;;;6.19;68.18;101766.00;5020002;28;20128;-82
2024/02/02 08:35:45;;;;;;;19.20;5.00;;;6.40;99.90;;;6.29;68.61;101765.94;5019737;28;20049;-82
2024/02/02 08:38:14;;;;;;;22.75;5.38;;;6.50;99.90;;;6.31;68.30;101769.28;5019704;28;20045;-82
2024/02/02 08:40:43;;;;;;;18.83;4.78;;;6.50;99.90;;;6.23;68.37;101753.28;5037052;28;20059;-82
2024/02/02 08:43:14;;;;;;;22.52;5.07;;;6.50;99.90;;;6.27;68.56;101763.44;5037121;28;20041;-82
2024/02/02 08:46:07;;;;;;;22.80;5.38;;;6.50;99.90;;;6.32;68.38;101752.41;5037282;28;20045;-82
2024/02/02 08:48:45;;;;;;;17.05;5.32;;;6.50;99.90;;;6.32;68.30;101753.22;5019619;28;20045;-82
2024/02/02 08:51:52;;;;;;;24.30;6.07;;;6.50;99.90;;;6.37;68.54;101743.00;5019819;28;20497;-82
2024/02/02 08:54:48;;;;;;;28.85;5.25;;;6.50;99.90;;;6.38;68.62;101743.81;5052397;28;20052;-82
2024/02/02 08:57:58;;;;;;;22.85;4.93;;;6.50;99.90;;;6.39;68.84;101745.50;5007634;28;20129;-82
2024/02/02 09:00:39;;;;;;;20.23;4.85;;;6.60;99.90;;;6.37;68.61;101740.34;4999151;28;20084;-82
2024/02/02 09:03:23;;;;;;;19.65;5.85;;;6.60;99.90;;;6.38;68.21;101754.44;5017705;28;20112;-82
2024/02/02 09:05:54;;;;;;;18.35;5.03;;;6.60;99.90;;;6.37;68.26;101743.00;5016966;28;20121;-82
2024/02/02 09:08:37;;;;;;;26.15;5.68;;;6.60;99.90;;;6.37;68.29;101737.69;5039932;28;20037;-83
2024/02/02 09:11:22;;;;;;;23.80;5.65;;;6.60;99.90;;;6.44;68.67;101745.88;5042996;28;20041;-82
2024/02/02 09:14:11;;;;;;;20.48;5.47;;;6.70;99.90;;;6.48;68.60;101733.16;5023670;28;20060;-82
2024/02/02 09:16:45;;;;;;;17.95;4.60;;;6.70;99.90;;;6.45;68.52;101727.19;5041584;28;20041;-82
2024/02/02 09:19:26;;;;;;;19.80;5.28;;;6.70;99.90;;;6.47;68.80;101737.63;5007256;28;20042;-82
2024/02/02 09:21:57;;;;;;;19.13;5.47;;;6.80;99.90;;;6.52;68.65;101734.50;5041950;28;20390;-82
2024/02/02 09:24:40;;;;;;;20.38;5.10;;;6.80;99.90;;;6.42;68.70;101727.47;5024700;28;20125;-82
2024/02/02 09:27:14;;;;;;;27.20;6.13;;;6.80;99.90;;;6.50;68.44;101731.19;5041289;28;20045;-82
2024/02/02 09:29:47;;;;;;;24.70;5.82;;;6.80;99.90;;;6.54;69.08;101746.63;5040283;28;20440;-82
2024/02/02 09:32:16;;;;;;;21.83;5.60;;;6.90;99.90;;;6.59;68.81;101738.22;5006110;28;20052;-82
2024/02/02 09:34:45;;;;;;;26.17;5.45;;;6.90;99.90;;;6.64;69.30;101744.72;5023489;28;20053;-82
2024/02/02 09:37:23;;;;;;;27.60;6.45;;;6.90;99.90;;;6.67;68.77;101736.44;5041340;28;20412;-82
2024/02/02 09:39:55;;;;;;;23.58;5.25;;;7.00;99.90;;;6.63;68.76;101743.03;5040771;28;20064;-82
2024/02/02 09:42:51;;;;;;;20.55;5.60;;;6.90;99.90;;;6.67;68.89;101747.06;5021463;28;20052;-82
2024/02/02 09:45:37;;;;;;;20.98;5.18;;;7.00;99.90;;;6.74;69.02;101738.50;5039911;28;20507;-82
2024/02/02 09:48:19;;;;;;;17.95;5.65;;;7.00;99.90;;;6.72;69.35;101747.41;5023260;28;20055;-82
2024/02/02 09:51:03;;;;;;;19.30;5.28;;;7.00;99.90;;;6.75;69.39;101740.16;5021667;28;20053;-82
2024/02/02 09:54:18;;;;;;;19.70;5.47;;;7.00;99.90;;;6.70;69.12;101735.31;5022400;28;20060;-82
2024/02/02 09:57:00;;;;;;;24.20;5.60;;;7.00;99.90;;;6.78;69.59;101745.13;5005336;28;20436;-82
2024/02/02 09:59:43;;;;;;;27.25;6.00;;;7.10;99.90;;;6.78;69.63;101748.63;5020753;28;20054;-82
2024/02/02 10:02:49;;;;;;;19.50;5.43;;;7.10;99.90;;;6.87;69.34;101745.03;5020116;28;20057;-82
2024/02/02 10:05:32;;;;;;;22.38;6.03;;;7.20;99.90;;;6.91;69.75;101740.28;5017104;28;20046;-82
2024/02/02 10:08:23;;;;;;;18.92;5.25;;;7.20;99.90;;;6.99;69.98;101747.47;5020729;28;20048;-82
2024/02/02 10:11:10;;;;;;;18.67;5.32;;;7.20;99.90;;;6.99;69.86;101753.59;5026789;28;20038;-82
2024/02/02 10:14:01;;;;;;;22.02;6.25;;;7.20;99.90;;;7.00;69.84;101747.28;5040595;28;20038;-82
2024/02/02 10:16:38;;;;;;;21.42;6.40;;;7.30;99.90;;;7.06;69.67;101749.31;5040238;28;20420;-82
2024/02/02 10:19:37;;;;;;;20.40;5.25;;;7.30;99.90;;;7.03;69.55;101743.47;5015314;28;20452;-82
2024/02/02 10:22:27;;;;;;;22.95;5.43;;;7.30;99.90;;;7.07;69.85;101750.13;4988332;28;20124;-82
2024/02/02 10:25:18;;;;;;;18.63;5.38;;;7.30;99.90;;;7.06;69.85;101748.47;5004376;28;20038;-82
2024/02/02 10:28:14;;;;;;;19.20;5.40;;;7.30;99.90;;;7.07;70.61;101744.84;5002405;28;20042;-82
2024/02/02 10:31:02;;;;;;;23.10;6.35;;;7.30;99.90;;;7.11;70.21;101744.38;4984845;28;20092;-82
2024/02/02 10:33:41;;;;;;;24.95;5.82;;;7.40;99.90;;;7.11;70.42;101724.97;5019334;28;20445;-82
2024/02/02 10:36:25;;;;;;;19.02;5.93;;;7.40;99.90;;;7.17;70.64;101737.59;5018054;28;20061;-82